sensor_id;sensor_type;location;lat;lon;timestamp;P1;durP1;ratioP1;P2;durP2;ratioP2
32734;SDS011;19112;51.076;3.706;2023-04-24T00:00:20;37.80;;;18.63;;
32734;SDS011;19112;51.076;3.706;2023-04-24T00:02:45;37.15;;;18.35;;
32734;SDS011;19112;51.076;3.706;2023-04-24T00:05:12;31.17;;;16.95;;
32734;SDS011;19112;51.076;3.706;2023-04-24T00:07:40;33.30;;;17.08;;
32734;SDS011;19112;51.076;3.706;2023-04-24T00:10:07;34.38;;;16.25;;
32734;SDS011;19112;51.076;3.706;2023-04-24T00:12:34;37.05;;;15.57;;
32734;SDS011;19112;51.076;3.706;2023-04-24T00:15:00;34.40;;;15.93;;
32734;SDS011;19112;51.076;3.706;2023-04-24T00:17:26;32.30;;;15.57;;
32734;SDS011;19112;51.076;3.706;2023-04-24T00:19:52;33.00;;;15.73;;
32734;SDS011;19112;51.076;3.706;2023-04-24T00:22:27;33.95;;;15.38;;
32734;SDS011;19112;51.076;3.706;2023-04-24T00:24:53;36.88;;;16.75;;
32734;SDS011;19112;51.076;3.706;2023-04-24T00:27:20;43.15;;;16.98;;
32734;SDS011;19112;51.076;3.706;2023-04-24T00:29:46;32.78;;;16.20;;
32734;SDS011;19112;51.076;3.706;2023-04-24T00:32:12;32.53;;;16.77;;
32734;SDS011;19112;51.076;3.706;2023-04-24T00:34:38;34.85;;;16.23;;
32734;SDS011;19112;51.076;3.706;2023-04-24T00:37:05;31.77;;;15.93;;
32734;SDS011;19112;51.076;3.706;2023-04-24T00:39:31;34.42;;;16.17;;
32734;SDS011;19112;51.076;3.706;2023-04-24T00:41:57;30.40;;;16.23;;
32734;SDS011;19112;51.076;3.706;2023-04-24T00:44:24;32.15;;;15.07;;
32734;SDS011;19112;51.076;3.706;2023-04-24T00:46:50;33.75;;;16.33;;
32734;SDS011;19112;51.076;3.706;2023-04-24T00:49:19;34.38;;;16.52;;
32734;SDS011;19112;51.076;3.706;2023-04-24T00:51:47;31.67;;;14.98;;
32734;SDS011;19112;51.076;3.706;2023-04-24T00:54:14;29.38;;;14.85;;
32734;SDS011;19112;51.076;3.706;2023-04-24T00:56:41;28.10;;;13.35;;
32734;SDS011;19112;51.076;3.706;2023-04-24T00:59:07;27.88;;;14.40;;
32734;SDS011;19112;51.076;3.706;2023-04-24T01:01:34;26.38;;;13.25;;
32734;SDS011;19112;51.076;3.706;2023-04-24T01:04:00;25.88;;;12.50;;
32734;SDS011;19112;51.076;3.706;2023-04-24T01:06:27;23.98;;;12.27;;
32734;SDS011;19112;51.076;3.706;2023-04-24T01:08:56;31.50;;;13.80;;
32734;SDS011;19112;51.076;3.706;2023-04-24T01:11:24;27.35;;;13.27;;
32734;SDS011;19112;51.076;3.706;2023-04-24T01:13:50;26.63;;;13.75;;
32734;SDS011;19112;51.076;3.706;2023-04-24T01:16:17;29.95;;;15.38;;
32734;SDS011;19112;51.076;3.706;2023-04-24T01:18:45;28.25;;;14.45;;
32734;SDS011;19112;51.076;3.706;2023-04-24T01:21:13;30.67;;;13.25;;
32734;SDS011;19112;51.076;3.706;2023-04-24T01:23:43;27.20;;;14.10;;
32734;SDS011;19112;51.076;3.706;2023-04-24T01:26:11;28.75;;;13.27;;
32734;SDS011;19112;51.076;3.706;2023-04-24T01:28:42;28.23;;;14.07;;
32734;SDS011;19112;51.076;3.706;2023-04-24T01:31:08;28.88;;;13.02;;
32734;SDS011;19112;51.076;3.706;2023-04-24T01:33:34;27.10;;;13.52;;
32734;SDS011;19112;51.076;3.706;2023-04-24T01:36:00;31.48;;;12.80;;
32734;SDS011;19112;51.076;3.706;2023-04-24T01:38:27;32.03;;;15.98;;
32734;SDS011;19112;51.076;3.706;2023-04-24T01:40:52;34.10;;;15.82;;
32734;SDS011;19112;51.076;3.706;2023-04-24T01:43:18;31.40;;;15.77;;
32734;SDS011;19112;51.076;3.706;2023-04-24T01:45:45;31.05;;;15.40;;
32734;SDS011;19112;51.076;3.706;2023-04-24T01:48:11;32.58;;;15.73;;
32734;SDS011;19112;51.076;3.706;2023-04-24T01:50:38;29.40;;;15.02;;
32734;SDS011;19112;51.076;3.706;2023-04-24T01:53:04;30.08;;;15.25;;
32734;SDS011;19112;51.076;3.706;2023-04-24T01:55:30;29.75;;;15.50;;
32734;SDS011;19112;51.076;3.706;2023-04-24T01:57:56;31.67;;;16.30;;
32734;SDS011;19112;51.076;3.706;2023-04-24T02:00:23;31.30;;;15.48;;
32734;SDS011;19112;51.076;3.706;2023-04-24T02:02:49;30.85;;;16.10;;
32734;SDS011;19112;51.076;3.706;2023-04-24T02:05:15;31.50;;;16.25;;
32734;SDS011;19112;51.076;3.706;2023-04-24T02:07:41;32.95;;;16.80;;
32734;SDS011;19112;51.076;3.706;2023-04-24T02:10:07;30.77;;;16.05;;
32734;SDS011;19112;51.076;3.706;2023-04-24T02:12:34;31.23;;;15.90;;
32734;SDS011;19112;51.076;3.706;2023-04-24T02:15:00;32.10;;;16.65;;
32734;SDS011;19112;51.076;3.706;2023-04-24T02:17:25;32.28;;;16.92;;
32734;SDS011;19112;51.076;3.706;2023-04-24T02:19:51;33.15;;;17.35;;
32734;SDS011;19112;51.076;3.706;2023-04-24T02:22:17;31.90;;;16.95;;
32734;SDS011;19112;51.076;3.706;2023-04-24T02:24:43;44.22;;;19.00;;
32734;SDS011;19112;51.076;3.706;2023-04-24T02:27:09;31.48;;;16.17;;
32734;SDS011;19112;51.076;3.706;2023-04-24T02:29:36;31.50;;;15.65;;
32734;SDS011;19112;51.076;3.706;2023-04-24T02:32:02;31.48;;;16.38;;
32734;SDS011;19112;51.076;3.706;2023-04-24T02:34:28;35.45;;;18.58;;
32734;SDS011;19112;51.076;3.706;2023-04-24T02:36:54;33.28;;;16.67;;
32734;SDS011;19112;51.076;3.706;2023-04-24T02:39:20;31.27;;;16.10;;
32734;SDS011;19112;51.076;3.706;2023-04-24T02:41:46;30.85;;;14.52;;
32734;SDS011;19112;51.076;3.706;2023-04-24T02:44:12;29.63;;;13.75;;
32734;SDS011;19112;51.076;3.706;2023-04-24T02:46:38;28.63;;;13.77;;
32734;SDS011;19112;51.076;3.706;2023-04-24T02:49:06;26.83;;;12.95;;
32734;SDS011;19112;51.076;3.706;2023-04-24T02:51:31;29.10;;;11.82;;
32734;SDS011;19112;51.076;3.706;2023-04-24T02:53:57;26.95;;;9.38;;
32734;SDS011;19112;51.076;3.706;2023-04-24T02:56:23;24.45;;;8.55;;
32734;SDS011;19112;51.076;3.706;2023-04-24T02:58:49;19.85;;;7.05;;
32734;SDS011;19112;51.076;3.706;2023-04-24T03:01:15;20.48;;;6.28;;
32734;SDS011;19112;51.076;3.706;2023-04-24T03:03:41;20.23;;;5.72;;
32734;SDS011;19112;51.076;3.706;2023-04-24T03:06:07;19.70;;;5.60;;
32734;SDS011;19112;51.076;3.706;2023-04-24T03:08:33;24.67;;;5.53;;
32734;SDS011;19112;51.076;3.706;2023-04-24T03:10:59;19.98;;;6.20;;
32734;SDS011;19112;51.076;3.706;2023-04-24T03:13:25;19.40;;;7.18;;
32734;SDS011;19112;51.076;3.706;2023-04-24T03:15:51;19.58;;;7.78;;
32734;SDS011;19112;51.076;3.706;2023-04-24T03:18:19;38.55;;;10.07;;
32734;SDS011;19112;51.076;3.706;2023-04-24T03:20:47;24.70;;;8.38;;
32734;SDS011;19112;51.076;3.706;2023-04-24T03:23:13;24.08;;;8.30;;
32734;SDS011;19112;51.076;3.706;2023-04-24T03:25:40;21.38;;;8.77;;
32734;SDS011;19112;51.076;3.706;2023-04-24T03:28:07;28.40;;;9.55;;
32734;SDS011;19112;51.076;3.706;2023-04-24T03:30:33;26.60;;;8.60;;
32734;SDS011;19112;51.076;3.706;2023-04-24T03:32:59;29.85;;;9.88;;
32734;SDS011;19112;51.076;3.706;2023-04-24T03:35:25;31.50;;;10.77;;
32734;SDS011;19112;51.076;3.706;2023-04-24T03:37:51;34.30;;;12.68;;
32734;SDS011;19112;51.076;3.706;2023-04-24T03:40:17;53.85;;;13.05;;
32734;SDS011;19112;51.076;3.706;2023-04-24T03:42:43;35.30;;;11.68;;
32734;SDS011;19112;51.076;3.706;2023-04-24T03:45:09;33.90;;;13.43;;
32734;SDS011;19112;51.076;3.706;2023-04-24T03:47:35;32.05;;;13.32;;
32734;SDS011;19112;51.076;3.706;2023-04-24T03:50:01;37.35;;;13.52;;
32734;SDS011;19112;51.076;3.706;2023-04-24T03:52:27;35.40;;;14.45;;
32734;SDS011;19112;51.076;3.706;2023-04-24T03:54:53;36.90;;;13.88;;
32734;SDS011;19112;51.076;3.706;2023-04-24T03:57:19;36.15;;;13.30;;
32734;SDS011;19112;51.076;3.706;2023-04-24T03:59:45;37.70;;;13.80;;
32734;SDS011;19112;51.076;3.706;2023-04-24T04:02:11;40.88;;;14.38;;
32734;SDS011;19112;51.076;3.706;2023-04-24T04:04:37;33.20;;;13.43;;
32734;SDS011;19112;51.076;3.706;2023-04-24T04:07:03;35.63;;;14.73;;
32734;SDS011;19112;51.076;3.706;2023-04-24T04:09:30;38.97;;;14.45;;
32734;SDS011;19112;51.076;3.706;2023-04-24T04:11:56;39.88;;;15.20;;
32734;SDS011;19112;51.076;3.706;2023-04-24T04:14:22;36.50;;;14.75;;
32734;SDS011;19112;51.076;3.706;2023-04-24T04:16:48;31.25;;;13.32;;
32734;SDS011;19112;51.076;3.706;2023-04-24T04:19:14;33.65;;;14.23;;
32734;SDS011;19112;51.076;3.706;2023-04-24T04:21:40;42.30;;;13.98;;
32734;SDS011;19112;51.076;3.706;2023-04-24T04:24:06;37.08;;;14.93;;
32734;SDS011;19112;51.076;3.706;2023-04-24T04:26:32;30.73;;;13.90;;
32734;SDS011;19112;51.076;3.706;2023-04-24T04:28:58;34.70;;;13.98;;
32734;SDS011;19112;51.076;3.706;2023-04-24T04:31:28;63.38;;;16.50;;
32734;SDS011;19112;51.076;3.706;2023-04-24T04:33:55;32.72;;;14.02;;
32734;SDS011;19112;51.076;3.706;2023-04-24T04:36:21;43.47;;;14.60;;
32734;SDS011;19112;51.076;3.706;2023-04-24T04:38:47;35.47;;;13.20;;
32734;SDS011;19112;51.076;3.706;2023-04-24T04:41:13;34.70;;;15.43;;
32734;SDS011;19112;51.076;3.706;2023-04-24T04:43:41;36.05;;;13.68;;
32734;SDS011;19112;51.076;3.706;2023-04-24T04:46:07;36.47;;;13.95;;
32734;SDS011;19112;51.076;3.706;2023-04-24T04:48:35;37.08;;;13.98;;
32734;SDS011;19112;51.076;3.706;2023-04-24T04:51:01;35.17;;;14.05;;
32734;SDS011;19112;51.076;3.706;2023-04-24T04:53:27;33.65;;;13.30;;
32734;SDS011;19112;51.076;3.706;2023-04-24T04:55:53;42.45;;;14.25;;
32734;SDS011;19112;51.076;3.706;2023-04-24T04:58:19;30.35;;;13.40;;
32734;SDS011;19112;51.076;3.706;2023-04-24T05:00:45;41.05;;;15.10;;
32734;SDS011;19112;51.076;3.706;2023-04-24T05:03:11;56.88;;;15.80;;
32734;SDS011;19112;51.076;3.706;2023-04-24T05:05:37;49.10;;;17.02;;
32734;SDS011;19112;51.076;3.706;2023-04-24T05:08:06;40.40;;;16.20;;
32734;SDS011;19112;51.076;3.706;2023-04-24T05:10:33;38.00;;;14.32;;
32734;SDS011;19112;51.076;3.706;2023-04-24T05:12:59;39.67;;;15.57;;
32734;SDS011;19112;51.076;3.706;2023-04-24T05:15:26;38.53;;;15.68;;
32734;SDS011;19112;51.076;3.706;2023-04-24T05:17:51;34.22;;;14.13;;
32734;SDS011;19112;51.076;3.706;2023-04-24T05:20:17;36.90;;;16.13;;
32734;SDS011;19112;51.076;3.706;2023-04-24T05:22:43;43.30;;;14.98;;
32734;SDS011;19112;51.076;3.706;2023-04-24T05:25:09;44.90;;;16.55;;
32734;SDS011;19112;51.076;3.706;2023-04-24T05:27:35;43.30;;;15.55;;
32734;SDS011;19112;51.076;3.706;2023-04-24T05:30:01;37.00;;;16.15;;
32734;SDS011;19112;51.076;3.706;2023-04-24T05:32:27;39.78;;;16.50;;
32734;SDS011;19112;51.076;3.706;2023-04-24T05:34:53;39.40;;;16.80;;
32734;SDS011;19112;51.076;3.706;2023-04-24T05:37:18;34.20;;;15.55;;
32734;SDS011;19112;51.076;3.706;2023-04-24T05:39:44;46.83;;;19.55;;
32734;SDS011;19112;51.076;3.706;2023-04-24T05:42:10;51.28;;;17.48;;
32734;SDS011;19112;51.076;3.706;2023-04-24T05:44:36;48.08;;;16.73;;
32734;SDS011;19112;51.076;3.706;2023-04-24T05:47:02;40.65;;;18.75;;
32734;SDS011;19112;51.076;3.706;2023-04-24T05:49:28;46.47;;;18.88;;
32734;SDS011;19112;51.076;3.706;2023-04-24T05:51:54;54.70;;;20.48;;
32734;SDS011;19112;51.076;3.706;2023-04-24T05:54:19;51.17;;;18.50;;
32734;SDS011;19112;51.076;3.706;2023-04-24T05:56:45;43.13;;;18.45;;
32734;SDS011;19112;51.076;3.706;2023-04-24T05:59:11;52.42;;;18.95;;
32734;SDS011;19112;51.076;3.706;2023-04-24T06:01:37;46.35;;;18.00;;
32734;SDS011;19112;51.076;3.706;2023-04-24T06:04:03;46.17;;;18.60;;
32734;SDS011;19112;51.076;3.706;2023-04-24T06:06:29;49.38;;;18.25;;
32734;SDS011;19112;51.076;3.706;2023-04-24T06:08:56;44.25;;;18.92;;
32734;SDS011;19112;51.076;3.706;2023-04-24T06:11:23;48.40;;;19.08;;
32734;SDS011;19112;51.076;3.706;2023-04-24T06:13:49;47.13;;;18.67;;
32734;SDS011;19112;51.076;3.706;2023-04-24T06:16:17;45.70;;;19.00;;
32734;SDS011;19112;51.076;3.706;2023-04-24T06:18:42;54.35;;;18.45;;
32734;SDS011;19112;51.076;3.706;2023-04-24T06:21:08;44.90;;;16.88;;
32734;SDS011;19112;51.076;3.706;2023-04-24T06:23:34;45.00;;;16.73;;
32734;SDS011;19112;51.076;3.706;2023-04-24T06:26:01;42.72;;;17.13;;
32734;SDS011;19112;51.076;3.706;2023-04-24T06:28:27;52.22;;;17.40;;
32734;SDS011;19112;51.076;3.706;2023-04-24T06:30:52;46.53;;;18.08;;
32734;SDS011;19112;51.076;3.706;2023-04-24T06:33:18;41.85;;;16.30;;
32734;SDS011;19112;51.076;3.706;2023-04-24T06:35:44;39.47;;;16.52;;
32734;SDS011;19112;51.076;3.706;2023-04-24T06:38:10;45.85;;;15.80;;
32734;SDS011;19112;51.076;3.706;2023-04-24T06:40:36;36.50;;;13.43;;
32734;SDS011;19112;51.076;3.706;2023-04-24T06:43:02;45.00;;;15.05;;
32734;SDS011;19112;51.076;3.706;2023-04-24T06:45:28;32.78;;;14.30;;
32734;SDS011;19112;51.076;3.706;2023-04-24T06:47:55;37.63;;;15.80;;
32734;SDS011;19112;51.076;3.706;2023-04-24T06:50:21;38.70;;;14.25;;
32734;SDS011;19112;51.076;3.706;2023-04-24T06:52:47;40.58;;;14.35;;
32734;SDS011;19112;51.076;3.706;2023-04-24T06:55:13;48.30;;;15.10;;
32734;SDS011;19112;51.076;3.706;2023-04-24T06:57:41;35.95;;;14.15;;
32734;SDS011;19112;51.076;3.706;2023-04-24T07:00:09;40.25;;;14.70;;
32734;SDS011;19112;51.076;3.706;2023-04-24T07:02:36;38.45;;;14.65;;
32734;SDS011;19112;51.076;3.706;2023-04-24T07:05:02;38.38;;;13.82;;
32734;SDS011;19112;51.076;3.706;2023-04-24T07:07:29;37.85;;;12.88;;
32734;SDS011;19112;51.076;3.706;2023-04-24T07:09:56;41.08;;;12.43;;
32734;SDS011;19112;51.076;3.706;2023-04-24T07:12:22;44.78;;;14.15;;
32734;SDS011;19112;51.076;3.706;2023-04-24T07:14:48;33.85;;;11.35;;
32734;SDS011;19112;51.076;3.706;2023-04-24T07:17:15;31.65;;;10.40;;
32734;SDS011;19112;51.076;3.706;2023-04-24T07:19:41;31.98;;;10.57;;
32734;SDS011;19112;51.076;3.706;2023-04-24T07:22:07;34.30;;;10.15;;
32734;SDS011;19112;51.076;3.706;2023-04-24T07:24:33;30.90;;;9.73;;
32734;SDS011;19112;51.076;3.706;2023-04-24T07:26:59;37.60;;;10.27;;
32734;SDS011;19112;51.076;3.706;2023-04-24T07:29:28;26.90;;;9.50;;
32734;SDS011;19112;51.076;3.706;2023-04-24T07:31:54;24.73;;;9.23;;
32734;SDS011;19112;51.076;3.706;2023-04-24T07:34:21;33.47;;;8.38;;
32734;SDS011;19112;51.076;3.706;2023-04-24T07:36:47;25.52;;;7.63;;
32734;SDS011;19112;51.076;3.706;2023-04-24T07:39:13;28.25;;;7.63;;
32734;SDS011;19112;51.076;3.706;2023-04-24T07:41:39;27.23;;;7.50;;
32734;SDS011;19112;51.076;3.706;2023-04-24T07:44:05;32.30;;;7.20;;
32734;SDS011;19112;51.076;3.706;2023-04-24T07:46:31;30.48;;;8.27;;
32734;SDS011;19112;51.076;3.706;2023-04-24T07:48:57;23.95;;;8.88;;
32734;SDS011;19112;51.076;3.706;2023-04-24T07:51:24;31.13;;;8.90;;
32734;SDS011;19112;51.076;3.706;2023-04-24T07:53:52;32.72;;;10.00;;
32734;SDS011;19112;51.076;3.706;2023-04-24T07:56:19;28.92;;;8.82;;
32734;SDS011;19112;51.076;3.706;2023-04-24T07:58:46;31.15;;;11.38;;
32734;SDS011;19112;51.076;3.706;2023-04-24T08:01:11;30.00;;;8.98;;
32734;SDS011;19112;51.076;3.706;2023-04-24T08:03:37;30.13;;;8.52;;
32734;SDS011;19112;51.076;3.706;2023-04-24T08:06:03;29.50;;;9.68;;
32734;SDS011;19112;51.076;3.706;2023-04-24T08:08:29;26.70;;;8.93;;
32734;SDS011;19112;51.076;3.706;2023-04-24T08:10:55;27.15;;;7.85;;
32734;SDS011;19112;51.076;3.706;2023-04-24T08:13:21;25.05;;;7.85;;
32734;SDS011;19112;51.076;3.706;2023-04-24T08:15:47;30.65;;;8.00;;
32734;SDS011;19112;51.076;3.706;2023-04-24T08:18:13;27.45;;;8.60;;
32734;SDS011;19112;51.076;3.706;2023-04-24T08:20:40;24.83;;;7.72;;
32734;SDS011;19112;51.076;3.706;2023-04-24T08:23:06;27.30;;;7.82;;
32734;SDS011;19112;51.076;3.706;2023-04-24T08:25:32;22.02;;;7.13;;
32734;SDS011;19112;51.076;3.706;2023-04-24T08:28:01;22.02;;;7.38;;
32734;SDS011;19112;51.076;3.706;2023-04-24T08:30:29;27.58;;;7.15;;
32734;SDS011;19112;51.076;3.706;2023-04-24T08:32:55;24.05;;;6.57;;
32734;SDS011;19112;51.076;3.706;2023-04-24T08:35:21;22.05;;;6.70;;
32734;SDS011;19112;51.076;3.706;2023-04-24T08:37:48;23.90;;;6.68;;
32734;SDS011;19112;51.076;3.706;2023-04-24T08:40:15;21.52;;;6.40;;
32734;SDS011;19112;51.076;3.706;2023-04-24T08:42:42;27.13;;;6.00;;
32734;SDS011;19112;51.076;3.706;2023-04-24T08:45:10;19.55;;;6.05;;
32734;SDS011;19112;51.076;3.706;2023-04-24T08:47:38;19.02;;;5.95;;
32734;SDS011;19112;51.076;3.706;2023-04-24T08:50:05;25.35;;;7.88;;
32734;SDS011;19112;51.076;3.706;2023-04-24T08:52:33;23.08;;;6.45;;
32734;SDS011;19112;51.076;3.706;2023-04-24T08:55:00;22.88;;;6.32;;
32734;SDS011;19112;51.076;3.706;2023-04-24T08:57:27;25.15;;;6.30;;
32734;SDS011;19112;51.076;3.706;2023-04-24T08:59:54;21.35;;;6.55;;
32734;SDS011;19112;51.076;3.706;2023-04-24T09:02:24;23.27;;;6.45;;
32734;SDS011;19112;51.076;3.706;2023-04-24T09:04:51;20.17;;;6.22;;
32734;SDS011;19112;51.076;3.706;2023-04-24T09:07:18;19.02;;;6.57;;
32734;SDS011;19112;51.076;3.706;2023-04-24T09:09:47;20.65;;;6.10;;
32734;SDS011;19112;51.076;3.706;2023-04-24T09:12:15;17.15;;;5.95;;
32734;SDS011;19112;51.076;3.706;2023-04-24T09:14:42;19.27;;;6.72;;
32734;SDS011;19112;51.076;3.706;2023-04-24T09:17:10;21.10;;;6.13;;
32734;SDS011;19112;51.076;3.706;2023-04-24T09:19:36;21.42;;;6.80;;
32734;SDS011;19112;51.076;3.706;2023-04-24T09:22:05;21.20;;;6.00;;
32734;SDS011;19112;51.076;3.706;2023-04-24T09:24:33;28.63;;;7.85;;
32734;SDS011;19112;51.076;3.706;2023-04-24T09:27:00;24.33;;;6.15;;
32734;SDS011;19112;51.076;3.706;2023-04-24T09:29:26;18.60;;;6.32;;
32734;SDS011;19112;51.076;3.706;2023-04-24T09:31:53;20.17;;;6.63;;
32734;SDS011;19112;51.076;3.706;2023-04-24T09:34:22;20.73;;;6.38;;
32734;SDS011;19112;51.076;3.706;2023-04-24T09:36:51;20.33;;;6.53;;
32734;SDS011;19112;51.076;3.706;2023-04-24T09:39:18;21.80;;;6.30;;
32734;SDS011;19112;51.076;3.706;2023-04-24T09:41:48;18.52;;;5.55;;
32734;SDS011;19112;51.076;3.706;2023-04-24T09:44:17;21.33;;;6.30;;
32734;SDS011;19112;51.076;3.706;2023-04-24T09:49:22;20.67;;;5.88;;
32734;SDS011;19112;51.076;3.706;2023-04-24T09:51:52;23.25;;;6.18;;
32734;SDS011;19112;51.076;3.706;2023-04-24T09:54:35;15.45;;;5.35;;
32734;SDS011;19112;51.076;3.706;2023-04-24T09:57:04;20.30;;;5.88;;
32734;SDS011;19112;51.076;3.706;2023-04-24T09:59:34;21.15;;;5.60;;
32734;SDS011;19112;51.076;3.706;2023-04-24T10:02:00;16.42;;;5.35;;
32734;SDS011;19112;51.076;3.706;2023-04-24T10:04:26;19.85;;;5.90;;
32734;SDS011;19112;51.076;3.706;2023-04-24T10:06:55;17.85;;;5.28;;
32734;SDS011;19112;51.076;3.706;2023-04-24T10:09:22;16.50;;;6.18;;
32734;SDS011;19112;51.076;3.706;2023-04-24T10:11:51;16.33;;;4.95;;
32734;SDS011;19112;51.076;3.706;2023-04-24T10:14:21;18.63;;;5.75;;
32734;SDS011;19112;51.076;3.706;2023-04-24T10:16:49;19.55;;;5.82;;
32734;SDS011;19112;51.076;3.706;2023-04-24T10:19:18;15.40;;;4.90;;
32734;SDS011;19112;51.076;3.706;2023-04-24T10:21:45;21.00;;;5.15;;
32734;SDS011;19112;51.076;3.706;2023-04-24T10:24:15;17.15;;;5.63;;
32734;SDS011;19112;51.076;3.706;2023-04-24T10:26:43;14.90;;;5.22;;
32734;SDS011;19112;51.076;3.706;2023-04-24T10:29:14;17.35;;;6.03;;
32734;SDS011;19112;51.076;3.706;2023-04-24T10:31:43;14.95;;;5.75;;
32734;SDS011;19112;51.076;3.706;2023-04-24T10:34:12;12.43;;;4.60;;
32734;SDS011;19112;51.076;3.706;2023-04-24T10:36:45;18.52;;;5.13;;
32734;SDS011;19112;51.076;3.706;2023-04-24T10:39:15;15.15;;;5.07;;
32734;SDS011;19112;51.076;3.706;2023-04-24T10:41:43;18.30;;;5.80;;
32734;SDS011;19112;51.076;3.706;2023-04-24T10:44:13;20.75;;;5.65;;
32734;SDS011;19112;51.076;3.706;2023-04-24T10:46:46;15.73;;;4.85;;
32734;SDS011;19112;51.076;3.706;2023-04-24T10:49:27;14.95;;;4.90;;
32734;SDS011;19112;51.076;3.706;2023-04-24T10:51:57;15.35;;;5.25;;
32734;SDS011;19112;51.076;3.706;2023-04-24T10:59:50;14.57;;;4.03;;
32734;SDS011;19112;51.076;3.706;2023-04-24T11:02:38;14.93;;;4.60;;
32734;SDS011;19112;51.076;3.706;2023-04-24T11:05:08;15.38;;;4.47;;
32734;SDS011;19112;51.076;3.706;2023-04-24T11:10:58;15.88;;;5.10;;
32734;SDS011;19112;51.076;3.706;2023-04-24T11:13:31;15.48;;;4.43;;
32734;SDS011;19112;51.076;3.706;2023-04-24T11:21:45;16.52;;;5.03;;
32734;SDS011;19112;51.076;3.706;2023-04-24T11:24:30;18.15;;;7.00;;
32734;SDS011;19112;51.076;3.706;2023-04-24T11:32:36;9.38;;;4.20;;
32734;SDS011;19112;51.076;3.706;2023-04-24T11:35:08;8.98;;;3.55;;
32734;SDS011;19112;51.076;3.706;2023-04-24T11:37:41;13.43;;;3.92;;
32734;SDS011;19112;51.076;3.706;2023-04-24T11:40:11;10.48;;;4.20;;
32734;SDS011;19112;51.076;3.706;2023-04-24T11:42:42;10.40;;;3.67;;
32734;SDS011;19112;51.076;3.706;2023-04-24T11:45:22;14.50;;;3.83;;
32734;SDS011;19112;51.076;3.706;2023-04-24T11:47:51;13.30;;;4.05;;
32734;SDS011;19112;51.076;3.706;2023-04-24T11:50:18;12.25;;;3.83;;
32734;SDS011;19112;51.076;3.706;2023-04-24T11:52:47;13.15;;;3.85;;
32734;SDS011;19112;51.076;3.706;2023-04-24T11:57:50;22.92;;;4.30;;
32734;SDS011;19112;51.076;3.706;2023-04-24T12:00:22;13.02;;;3.95;;
32734;SDS011;19112;51.076;3.706;2023-04-24T12:03:06;12.43;;;3.60;;
32734;SDS011;19112;51.076;3.706;2023-04-24T12:08:03;10.43;;;3.30;;
32734;SDS011;19112;51.076;3.706;2023-04-24T12:10:30;10.93;;;3.05;;
32734;SDS011;19112;51.076;3.706;2023-04-24T12:12:58;9.00;;;2.97;;
32734;SDS011;19112;51.076;3.706;2023-04-24T12:15:26;12.13;;;3.47;;
32734;SDS011;19112;51.076;3.706;2023-04-24T12:17:53;12.70;;;3.10;;
32734;SDS011;19112;51.076;3.706;2023-04-24T12:20:41;10.88;;;3.00;;
32734;SDS011;19112;51.076;3.706;2023-04-24T12:23:06;9.90;;;2.90;;
32734;SDS011;19112;51.076;3.706;2023-04-24T12:25:32;11.93;;;2.60;;
32734;SDS011;19112;51.076;3.706;2023-04-24T12:30:28;8.18;;;2.70;;
32734;SDS011;19112;51.076;3.706;2023-04-24T12:32:59;8.32;;;3.03;;
32734;SDS011;19112;51.076;3.706;2023-04-24T12:35:28;15.00;;;2.60;;
32734;SDS011;19112;51.076;3.706;2023-04-24T12:38:05;11.85;;;2.67;;
32734;SDS011;19112;51.076;3.706;2023-04-24T12:40:37;9.02;;;2.85;;
32734;SDS011;19112;51.076;3.706;2023-04-24T12:43:12;8.70;;;2.33;;
32734;SDS011;19112;51.076;3.706;2023-04-24T12:45:45;6.72;;;2.60;;
32734;SDS011;19112;51.076;3.706;2023-04-24T12:48:12;12.27;;;3.72;;
32734;SDS011;19112;51.076;3.706;2023-04-24T12:50:41;8.80;;;2.95;;
32734;SDS011;19112;51.076;3.706;2023-04-24T12:53:08;8.43;;;2.60;;
32734;SDS011;19112;51.076;3.706;2023-04-24T12:55:35;13.40;;;2.58;;
32734;SDS011;19112;51.076;3.706;2023-04-24T12:58:02;8.80;;;2.40;;
32734;SDS011;19112;51.076;3.706;2023-04-24T13:00:28;10.07;;;2.47;;
32734;SDS011;19112;51.076;3.706;2023-04-24T13:02:54;8.95;;;2.17;;
32734;SDS011;19112;51.076;3.706;2023-04-24T13:05:20;10.80;;;2.28;;
32734;SDS011;19112;51.076;3.706;2023-04-24T13:07:46;10.63;;;2.55;;
32734;SDS011;19112;51.076;3.706;2023-04-24T13:10:12;5.85;;;2.42;;
32734;SDS011;19112;51.076;3.706;2023-04-24T13:12:38;8.43;;;2.50;;
32734;SDS011;19112;51.076;3.706;2023-04-24T13:15:05;10.60;;;2.42;;
32734;SDS011;19112;51.076;3.706;2023-04-24T13:17:32;8.07;;;2.08;;
32734;SDS011;19112;51.076;3.706;2023-04-24T13:19:58;5.60;;;2.20;;
32734;SDS011;19112;51.076;3.706;2023-04-24T13:22:24;5.40;;;2.35;;
32734;SDS011;19112;51.076;3.706;2023-04-24T13:24:50;8.52;;;2.00;;
32734;SDS011;19112;51.076;3.706;2023-04-24T13:27:16;5.47;;;2.00;;
32734;SDS011;19112;51.076;3.706;2023-04-24T13:29:43;5.43;;;1.75;;
32734;SDS011;19112;51.076;3.706;2023-04-24T13:32:09;7.22;;;2.05;;
32734;SDS011;19112;51.076;3.706;2023-04-24T13:34:35;5.43;;;1.85;;
32734;SDS011;19112;51.076;3.706;2023-04-24T13:37:02;6.43;;;1.80;;
32734;SDS011;19112;51.076;3.706;2023-04-24T13:39:33;4.93;;;1.80;;
32734;SDS011;19112;51.076;3.706;2023-04-24T13:41:59;13.82;;;2.47;;
32734;SDS011;19112;51.076;3.706;2023-04-24T13:44:25;5.90;;;2.20;;
32734;SDS011;19112;51.076;3.706;2023-04-24T13:46:52;8.90;;;2.13;;
32734;SDS011;19112;51.076;3.706;2023-04-24T13:49:22;9.32;;;2.20;;
32734;SDS011;19112;51.076;3.706;2023-04-24T13:51:53;9.85;;;2.22;;
32734;SDS011;19112;51.076;3.706;2023-04-24T13:54:20;6.15;;;2.08;;
32734;SDS011;19112;51.076;3.706;2023-04-24T13:56:48;6.88;;;1.92;;
32734;SDS011;19112;51.076;3.706;2023-04-24T13:59:14;6.88;;;2.47;;
32734;SDS011;19112;51.076;3.706;2023-04-24T14:01:40;10.23;;;2.28;;
32734;SDS011;19112;51.076;3.706;2023-04-24T14:04:06;6.25;;;2.00;;
32734;SDS011;19112;51.076;3.706;2023-04-24T14:06:32;9.52;;;2.30;;
32734;SDS011;19112;51.076;3.706;2023-04-24T14:08:58;5.60;;;1.92;;
32734;SDS011;19112;51.076;3.706;2023-04-24T14:11:23;10.02;;;2.97;;
32734;SDS011;19112;51.076;3.706;2023-04-24T14:13:51;8.80;;;2.00;;
32734;SDS011;19112;51.076;3.706;2023-04-24T14:16:17;6.78;;;2.13;;
32734;SDS011;19112;51.076;3.706;2023-04-24T14:18:42;5.40;;;1.83;;
32734;SDS011;19112;51.076;3.706;2023-04-24T14:21:08;7.35;;;1.88;;
32734;SDS011;19112;51.076;3.706;2023-04-24T14:23:34;6.22;;;2.33;;
32734;SDS011;19112;51.076;3.706;2023-04-24T14:26:00;3.08;;;1.70;;
32734;SDS011;19112;51.076;3.706;2023-04-24T14:28:26;8.77;;;2.38;;
32734;SDS011;19112;51.076;3.706;2023-04-24T14:30:52;5.75;;;1.90;;
32734;SDS011;19112;51.076;3.706;2023-04-24T14:33:18;7.05;;;1.80;;
32734;SDS011;19112;51.076;3.706;2023-04-24T14:35:45;8.77;;;2.53;;
32734;SDS011;19112;51.076;3.706;2023-04-24T14:38:12;6.57;;;2.00;;
32734;SDS011;19112;51.076;3.706;2023-04-24T14:40:38;7.43;;;2.05;;
32734;SDS011;19112;51.076;3.706;2023-04-24T14:43:04;8.38;;;2.35;;
32734;SDS011;19112;51.076;3.706;2023-04-24T14:45:30;12.18;;;2.67;;
32734;SDS011;19112;51.076;3.706;2023-04-24T14:47:57;8.02;;;2.40;;
32734;SDS011;19112;51.076;3.706;2023-04-24T14:50:23;8.98;;;2.72;;
32734;SDS011;19112;51.076;3.706;2023-04-24T14:52:53;5.93;;;2.55;;
32734;SDS011;19112;51.076;3.706;2023-04-24T14:55:22;11.70;;;2.78;;
32734;SDS011;19112;51.076;3.706;2023-04-24T14:57:49;17.98;;;3.15;;
32734;SDS011;19112;51.076;3.706;2023-04-24T15:00:15;12.75;;;2.55;;